Time;durP1;ratioP1;P1;durP2;ratioP2;P2;SDS_P1;SDS_P2;PMS_P1;PMS_P2;Temp;Humidity;BMP_temperature;BMP_pressure;BME280_temperature;BME280_humidity;BME280_pressure;Samples;Min_cycle;Max_cycle;Signal;HPM_P1;HPM_P2
2022/03/05 00:00:35;;;;;;;17.00;7.85;;;-1.30;99.90;;;;;;5051907;28;20029;-82
2022/03/05 00:03:01;;;;;;;17.33;8.02;;;-1.50;99.90;;;;;;5054978;28;20024;-82
2022/03/05 00:05:28;;;;;;;15.13;6.88;;;-1.50;99.90;;;;;;5055248;28;20029;-82
2022/03/05 00:07:54;;;;;;;16.45;7.57;;;-1.60;99.90;;;;;;5056323;28;20025;-83
2022/03/05 00:10:20;;;;;;;16.60;7.78;;;-1.60;99.90;;;;;;5055315;28;20035;-82
2022/03/05 00:12:47;;;;;;;18.10;8.25;;;-1.60;99.90;;;;;;5055078;28;20468;-82
2022/03/05 00:15:12;;;;;;;17.00;8.13;;;-1.50;99.90;;;;;;5054846;28;20488;-83
2022/03/05 00:17:38;;;;;;;18.75;8.20;;;-1.40;99.90;;;;;;5056076;28;20060;-83
2022/03/05 00:20:05;;;;;;;16.08;7.82;;;-1.40;99.90;;;;;;5055257;28;20025;-82
2022/03/05 00:22:32;;;;;;;18.45;8.70;;;-1.30;99.90;;;;;;5056288;28;20025;-82
2022/03/05 00:24:58;;;;;;;19.38;9.18;;;-1.40;99.90;;;;;;5054637;28;20052;-82
2022/03/05 00:27:24;;;;;;;16.10;7.57;;;-1.40;99.90;;;;;;5039567;28;20017;-82
2022/03/05 00:29:50;;;;;;;18.48;8.73;;;-1.50;99.90;;;;;;5035019;28;20022;-82
2022/03/05 00:32:15;;;;;;;19.83;9.27;;;-1.60;99.90;;;;;;5034992;28;20032;-82
2022/03/05 00:34:41;;;;;;;14.20;7.43;;;-1.40;99.90;;;;;;5036483;28;20022;-82
2022/03/05 00:37:08;;;;;;;18.33;8.35;;;-1.70;99.90;;;;;;5034801;28;20017;-82
2022/03/05 00:39:34;;;;;;;19.50;7.97;;;-1.60;99.90;;;;;;5036147;28;20052;-82
2022/03/05 00:41:59;;;;;;;15.85;8.15;;;-1.70;99.90;;;;;;5050883;28;20056;-82
2022/03/05 00:44:25;;;;;;;18.45;7.90;;;-1.50;99.90;;;;;;5054744;28;20075;-82
2022/03/05 00:46:50;;;;;;;19.45;8.57;;;-1.60;99.90;;;;;;5067596;28;20039;-82
2022/03/05 00:49:16;;;;;;;17.67;7.60;;;-1.60;99.90;;;;;;5075152;28;20101;-82
2022/03/05 00:51:41;;;;;;;19.52;8.27;;;-1.70;99.90;;;;;;5075708;28;20021;-81
2022/03/05 00:54:07;;;;;;;17.13;7.45;;;-1.70;99.90;;;;;;5074806;28;20112;-81
2022/03/05 00:56:32;;;;;;;20.45;8.40;;;-1.80;99.90;;;;;;5074700;28;20074;-82
2022/03/05 00:58:58;;;;;;;21.17;9.25;;;-1.60;99.90;;;;;;5074932;28;20636;-82
2022/03/05 01:01:24;;;;;;;17.40;8.13;;;-1.60;99.90;;;;;;5074786;28;20092;-82
2022/03/05 01:03:49;;;;;;;18.73;8.07;;;-1.80;99.90;;;;;;5075117;28;20064;-81
2022/03/05 01:06:15;;;;;;;16.77;7.32;;;-1.80;99.90;;;;;;5076230;28;20106;-82
2022/03/05 01:08:41;;;;;;;17.65;7.70;;;-2.00;99.90;;;;;;5077240;28;20066;-82
2022/03/05 01:11:08;;;;;;;17.27;7.72;;;-2.00;99.90;;;;;;5063379;28;20028;-82
2022/03/05 01:13:35;;;;;;;17.75;8.48;;;-2.10;99.90;;;;;;5056554;28;20094;-83
2022/03/05 01:16:00;;;;;;;17.83;8.60;;;-2.00;99.90;;;;;;5053977;28;20035;-82
2022/03/05 01:18:26;;;;;;;19.10;7.85;;;-2.20;99.90;;;;;;5055482;28;20017;-82
2022/03/05 01:20:52;;;;;;;16.05;7.65;;;-2.10;99.90;;;;;;5055467;28;20017;-83
2022/03/05 01:23:18;;;;;;;18.55;8.25;;;-2.10;99.90;;;;;;5053781;28;20456;-83
2022/03/05 01:25:43;;;;;;;19.50;8.07;;;-2.10;99.90;;;;;;5054959;28;20099;-83
2022/03/05 01:28:09;;;;;;;17.25;7.53;;;-2.20;99.90;;;;;;5053883;28;20551;-83
2022/03/05 01:30:34;;;;;;;16.65;7.63;;;-2.10;99.90;;;;;;5055147;28;20139;-82
2022/03/05 01:33:00;;;;;;;22.77;8.32;;;-2.10;99.90;;;;;;5055368;28;20025;-82
2022/03/05 01:35:25;;;;;;;19.88;8.77;;;-2.00;99.90;;;;;;5055090;28;20028;-83
2022/03/05 01:37:51;;;;;;;20.63;8.48;;;-2.00;99.90;;;;;;5053556;28;20013;-82
2022/03/05 01:40:17;;;;;;;17.83;8.10;;;-2.00;99.90;;;;;;5054674;28;20711;-82
2022/03/05 01:42:42;;;;;;;18.70;7.85;;;-2.00;99.90;;;;;;5053359;28;20498;-82
2022/03/05 01:45:11;;;;;;;16.95;8.60;;;-2.10;99.90;;;;;;5053898;28;20480;-82
2022/03/05 01:47:38;;;;;;;21.08;8.75;;;-2.10;99.90;;;;;;5055326;28;20017;-82
2022/03/05 01:50:04;;;;;;;19.20;8.23;;;-2.00;99.90;;;;;;5053750;28;20022;-82
2022/03/05 01:52:30;;;;;;;21.48;9.50;;;-2.10;99.90;;;;;;5054936;28;20025;-82
2022/03/05 01:54:55;;;;;;;17.02;8.07;;;-2.10;99.90;;;;;;5054664;28;20699;-81
2022/03/05 01:57:21;;;;;;;21.20;9.52;;;-2.00;99.90;;;;;;5055124;28;20031;-82
2022/03/05 01:59:48;;;;;;;20.95;8.65;;;-2.10;99.90;;;;;;5055739;28;20028;-82
2022/03/05 02:02:13;;;;;;;19.60;8.35;;;-2.20;99.90;;;;;;5054825;28;20750;-81
2022/03/05 02:04:39;;;;;;;17.05;8.15;;;-2.30;99.90;;;;;;5053507;28;20029;-81
2022/03/05 02:07:04;;;;;;;16.85;7.72;;;-2.30;99.90;;;;;;5052989;28;20546;-82
2022/03/05 02:09:30;;;;;;;17.20;8.10;;;-2.40;99.90;;;;;;5053008;28;20020;-82
2022/03/05 02:11:56;;;;;;;16.90;7.32;;;-2.20;99.90;;;;;;5052899;28;20469;-82
2022/03/05 02:15:04;;;;;;;19.15;8.73;;;-2.50;99.90;;;;;;5054187;28;20025;-82
2022/03/05 02:17:29;;;;;;;17.05;7.78;;;-2.50;99.90;;;;;;5053024;28;20037;-82
2022/03/05 02:19:56;;;;;;;16.75;7.85;;;-2.50;99.90;;;;;;5054271;28;20021;-81
2022/03/05 02:22:22;;;;;;;19.55;8.48;;;-2.50;99.90;;;;;;5062511;28;20025;-82
2022/03/05 02:24:59;;;;;;;18.88;8.32;;;-2.60;99.90;;;;;;5071768;28;20056;-82
2022/03/05 02:27:27;;;;;;;19.15;8.88;;;-2.40;99.90;;;;;;5074163;28;20028;-82
2022/03/05 02:29:53;;;;;;;18.33;7.72;;;-2.40;99.90;;;;;;5072676;28;20028;-82
2022/03/05 02:32:49;;;;;;;16.33;7.10;;;-2.40;99.90;;;;;;5056536;28;20401;-82
2022/03/05 02:35:14;;;;;;;19.05;7.72;;;-2.60;99.90;;;;;;5053938;28;20025;-81
2022/03/05 02:37:40;;;;;;;20.80;7.88;;;-2.80;99.90;;;;;;5053714;28;20035;-82
2022/03/05 02:40:06;;;;;;;18.65;8.32;;;-2.70;99.90;;;;;;5052362;28;20028;-82
2022/03/05 02:42:32;;;;;;;20.05;7.88;;;-2.80;99.90;;;;;;5052733;28;20026;-82
2022/03/05 02:44:57;;;;;;;18.60;8.18;;;-2.70;99.90;;;;;;5054454;28;20028;-81
2022/03/05 02:47:23;;;;;;;18.63;8.32;;;-2.80;99.90;;;;;;5055841;28;20031;-82
2022/03/05 02:49:48;;;;;;;17.92;8.05;;;-3.10;99.90;;;;;;5055450;28;20535;-82
2022/03/05 02:52:14;;;;;;;19.23;8.35;;;-3.10;99.90;;;;;;5055159;28;20083;-82
2022/03/05 02:54:39;;;;;;;19.38;7.35;;;-3.20;99.90;;;;;;5054386;28;20442;-82
2022/03/05 02:57:05;;;;;;;20.63;8.15;;;-2.90;99.90;;;;;;5057698;28;20049;-82
2022/03/05 02:59:30;;;;;;;20.38;7.85;;;-2.90;99.90;;;;;;5058124;28;20021;-82
2022/03/05 03:01:56;;;;;;;16.13;6.90;;;-3.00;99.90;;;;;;5055716;28;20368;-82
2022/03/05 03:04:22;;;;;;;17.60;7.80;;;-3.10;99.90;;;;;;5055352;28;20029;-82
2022/03/05 03:06:47;;;;;;;16.60;7.43;;;-3.00;99.90;;;;;;5056701;28;20623;-82
2022/03/05 03:09:13;;;;;;;17.50;7.40;;;-3.10;99.90;;;;;;5057731;28;20028;-82
2022/03/05 03:11:38;;;;;;;17.98;7.82;;;-3.20;99.90;;;;;;5057746;28;20170;-82
2022/03/05 03:14:04;;;;;;;18.63;8.10;;;-3.30;99.90;;;;;;5057513;28;20088;-82
2022/03/05 03:16:30;;;;;;;17.80;7.72;;;-3.50;99.90;;;;;;5054658;28;20450;-82
2022/03/05 03:18:56;;;;;;;18.23;7.20;;;-3.50;99.90;;;;;;5057125;28;20029;-82
2022/03/05 03:21:21;;;;;;;18.27;7.82;;;-3.50;99.90;;;;;;5057089;28;20061;-82
2022/03/05 03:23:47;;;;;;;17.58;7.53;;;-3.40;99.90;;;;;;5059280;28;20053;-82
2022/03/05 03:26:12;;;;;;;18.48;7.85;;;-3.40;99.90;;;;;;5060414;28;20055;-83
2022/03/05 03:28:38;;;;;;;18.20;7.78;;;-3.50;99.90;;;;;;5059328;28;20029;-82
2022/03/05 03:31:04;;;;;;;20.02;7.65;;;-3.70;99.90;;;;;;5061470;28;20035;-83
2022/03/05 03:33:29;;;;;;;20.05;7.80;;;-3.50;99.90;;;;;;5062190;28;20024;-82
2022/03/05 03:35:55;;;;;;;16.45;7.05;;;-3.40;99.90;;;;;;5060392;28;20025;-82
2022/03/05 03:38:20;;;;;;;20.25;8.20;;;-3.30;1.00;;;;;;5060731;28;20013;-83
2022/03/05 03:40:46;;;;;;;17.05;6.60;;;-3.20;1.00;;;;;;5060169;28;20031;-82
2022/03/05 03:43:11;;;;;;;20.08;6.80;;;-3.20;1.00;;;;;;5060244;28;20032;-83
2022/03/05 03:45:37;;;;;;;17.25;7.32;;;-3.10;1.00;;;;;;5061296;28;20029;-82
2022/03/05 03:48:03;;;;;;;19.25;7.93;;;-3.10;1.00;;;;;;5063015;28;20146;-82
2022/03/05 03:50:28;;;;;;;17.10;7.63;;;-3.30;1.00;;;;;;5061631;28;20032;-82
2022/03/05 03:52:54;;;;;;;17.77;7.43;;;-3.30;1.00;;;;;;5059809;28;20028;-82
2022/03/05 03:55:21;;;;;;;17.58;7.32;;;-3.30;1.00;;;;;;5057995;28;20028;-82
2022/03/05 03:57:47;;;;;;;16.27;7.30;;;-3.20;1.00;;;;;;5061667;28;20051;-83
2022/03/05 04:00:15;;;;;;;18.02;6.85;;;-3.30;99.90;;;;;;5064683;28;20021;-81
2022/03/05 04:02:41;;;;;;;16.55;7.53;;;-3.30;99.90;;;;;;5065096;28;20029;-81
2022/03/05 04:05:08;;;;;;;17.40;6.85;;;-3.20;1.00;;;;;;5061400;28;20109;-81
2022/03/05 04:10:17;;;;;;;17.27;7.13;;;-3.30;99.90;;;;;;5058150;28;20620;-82
2022/03/05 04:12:43;;;;;;;17.65;6.93;;;-3.20;99.90;;;;;;5056187;28;20017;-82
2022/03/05 04:15:09;;;;;;;15.90;7.05;;;-3.20;99.90;;;;;;5056839;28;20480;-82
2022/03/05 04:17:35;;;;;;;15.85;6.30;;;-3.40;99.90;;;;;;5056717;28;20021;-81
2022/03/05 04:20:00;;;;;;;15.73;6.53;;;-3.40;99.90;;;;;;5058116;28;20537;-81
2022/03/05 04:22:26;;;;;;;19.75;7.30;;;-3.40;99.90;;;;;;5075579;28;20027;-81
2022/03/05 04:24:52;;;;;;;17.48;7.05;;;-3.30;99.90;;;;;;5076951;28;20059;-82
2022/03/05 04:27:17;;;;;;;15.93;7.38;;;-3.40;99.90;;;;;;5077317;28;20025;-81
2022/03/05 04:29:43;;;;;;;16.60;6.72;;;-3.40;99.90;;;;;;5075765;28;20579;-81
2022/03/05 04:32:09;;;;;;;12.95;5.60;;;-3.50;99.90;;;;;;5076923;28;20020;-81
2022/03/05 04:34:35;;;;;;;17.42;8.07;;;-3.30;1.00;;;;;;5075759;28;20384;-82
2022/03/05 04:37:01;;;;;;;16.20;6.30;;;-3.40;99.90;;;;;;5075091;28;20028;-82
2022/03/05 04:39:26;;;;;;;22.85;7.07;;;-3.40;99.90;;;;;;5060522;28;20035;-82
2022/03/05 04:41:52;;;;;;;15.27;6.65;;;-3.50;99.90;;;;;;5056177;28;20080;-82
2022/03/05 04:44:18;;;;;;;17.25;7.15;;;-3.50;99.90;;;;;;5055727;28;20037;-82
2022/03/05 04:46:43;;;;;;;12.57;5.32;;;-3.50;99.90;;;;;;5055573;28;20031;-82
2022/03/05 04:49:09;;;;;;;15.05;6.28;;;-3.50;1.00;;;;;;5057301;28;20435;-82
2022/03/05 04:51:35;;;;;;;12.35;4.53;;;-3.40;1.00;;;;;;5057544;28;20032;-81
2022/03/05 04:54:01;;;;;;;12.93;6.10;;;-3.30;1.00;;;;;;5057091;28;20032;-82
2022/03/05 04:56:26;;;;;;;16.00;6.90;;;-3.30;99.90;;;;;;5057436;28;20433;-82
2022/03/05 04:58:52;;;;;;;12.02;5.53;;;-3.50;99.90;;;;;;5058431;28;20099;-82
2022/03/05 05:01:18;;;;;;;13.90;6.07;;;-3.30;99.90;;;;;;5057207;28;20025;-82
2022/03/05 05:03:44;;;;;;;14.15;5.90;;;-3.10;1.00;;;;;;5056609;28;20064;-82
2022/03/05 05:06:11;;;;;;;16.48;6.40;;;-3.20;99.90;;;;;;5056505;28;20052;-82
2022/03/05 05:08:41;;;;;;;12.70;6.32;;;-2.90;99.90;;;;;;5056927;28;20021;-81
2022/03/05 05:11:07;;;;;;;16.20;6.40;;;-2.70;99.90;;;;;;5055625;28;20546;-82
2022/03/05 05:13:33;;;;;;;15.20;6.35;;;-2.90;99.90;;;;;;5060310;28;20379;-82
2022/03/05 05:15:58;;;;;;;15.48;6.20;;;-3.20;99.90;;;;;;5076038;28;20487;-82
2022/03/05 05:18:24;;;;;;;17.02;6.63;;;-3.30;99.90;;;;;;5076307;28;20502;-82
2022/03/05 05:20:50;;;;;;;16.67;6.20;;;-3.20;99.90;;;;;;5076785;28;20020;-82
2022/03/05 05:23:15;;;;;;;14.65;5.82;;;-3.30;99.90;;;;;;5067101;28;20052;-82
2022/03/05 05:25:41;;;;;;;10.82;6.05;;;-3.00;99.90;;;;;;5057487;28;20119;-82
2022/03/05 05:28:07;;;;;;;17.38;6.15;;;-3.00;99.90;;;;;;5057707;28;20067;-82
2022/03/05 05:30:33;;;;;;;15.02;6.75;;;-3.00;99.90;;;;;;5076162;28;20024;-82
2022/03/05 05:32:59;;;;;;;16.40;6.80;;;-2.70;99.90;;;;;;5060733;28;20021;-82
2022/03/05 05:35:25;;;;;;;14.20;6.75;;;-2.90;99.90;;;;;;5071003;28;20020;-82
2022/03/05 05:37:51;;;;;;;16.45;6.15;;;-3.00;99.90;;;;;;5077223;28;20033;-82
2022/03/05 05:40:16;;;;;;;12.35;5.82;;;-3.00;99.90;;;;;;5067969;28;20033;-83
2022/03/05 05:42:42;;;;;;;22.33;7.50;;;-2.90;99.90;;;;;;5070609;28;20126;-82
2022/03/05 05:45:09;;;;;;;17.48;7.22;;;-2.80;99.90;;;;;;5073799;28;20020;-81
2022/03/05 05:47:35;;;;;;;16.20;6.60;;;-2.80;99.90;;;;;;5069810;28;20052;-82
2022/03/05 05:50:00;;;;;;;12.85;5.32;;;-2.80;99.90;;;;;;5063100;28;20036;-82
2022/03/05 05:52:26;;;;;;;18.58;7.15;;;-2.90;99.90;;;;;;5078865;28;20504;-82
2022/03/05 05:54:52;;;;;;;16.10;6.90;;;-2.90;99.90;;;;;;5079977;28;20045;-82
2022/03/05 05:57:17;;;;;;;14.68;6.18;;;-2.90;99.90;;;;;;5065775;28;20040;-83
2022/03/05 05:59:43;;;;;;;16.65;6.65;;;-3.00;99.90;;;;;;5070295;28;20027;-83
2022/03/05 06:02:09;;;;;;;17.02;6.88;;;-3.20;99.90;;;;;;5076126;28;20021;-82
2022/03/05 06:04:35;;;;;;;16.83;6.35;;;-3.10;99.90;;;;;;5084735;28;20029;-82
2022/03/05 06:07:00;;;;;;;15.02;5.88;;;-3.40;99.90;;;;;;5082755;28;20033;-82
2022/03/05 06:09:26;;;;;;;15.15;6.07;;;-3.50;99.90;;;;;;5066018;28;20029;-83
2022/03/05 06:11:52;;;;;;;17.10;6.68;;;-3.20;99.90;;;;;;5064257;28;20019;-82
2022/03/05 06:14:17;;;;;;;20.38;7.05;;;-3.20;99.90;;;;;;5063508;28;20029;-83
2022/03/05 06:16:43;;;;;;;21.98;7.05;;;-3.20;99.90;;;;;;5071181;28;20503;-82
2022/03/05 06:19:08;;;;;;;16.92;6.80;;;-3.30;99.90;;;;;;5074978;28;20383;-82
2022/03/05 06:21:34;;;;;;;12.63;5.65;;;-3.30;99.90;;;;;;5064028;28;20116;-83
2022/03/05 06:24:00;;;;;;;14.88;6.28;;;-3.10;99.90;;;;;;5076817;28;20056;-83
2022/03/05 06:26:28;;;;;;;18.67;6.68;;;-3.10;99.90;;;;;;5083123;28;20020;-83
2022/03/05 06:28:54;;;;;;;16.83;6.28;;;-3.20;99.90;;;;;;5065600;28;20475;-83
2022/03/05 06:31:20;;;;;;;16.20;6.28;;;-3.20;99.90;;;;;;5066455;28;20029;-82
2022/03/05 06:33:45;;;;;;;14.05;6.38;;;-3.30;99.90;;;;;;5069410;28;20033;-82
2022/03/05 06:36:11;;;;;;;17.52;6.50;;;-3.20;99.90;;;;;;5066679;28;20437;-83
2022/03/05 06:38:36;;;;;;;14.88;5.85;;;-3.20;99.90;;;;;;5063466;28;20024;-83
2022/03/05 06:41:02;;;;;;;13.30;6.32;;;-3.20;99.90;;;;;;5051926;28;20040;-84
2022/03/05 06:43:27;;;;;;;15.43;6.60;;;-3.00;99.90;;;;;;5059535;28;20033;-82
2022/03/05 06:45:53;;;;;;;9.35;4.82;;;-3.00;99.90;;;;;;5061545;28;20025;-82
2022/03/05 06:48:18;;;;;;;14.38;6.05;;;-3.00;99.90;;;;;;5075064;28;20021;-82
2022/03/05 06:50:44;;;;;;;15.93;5.97;;;-2.90;99.90;;;;;;5074188;28;20103;-81
2022/03/05 06:53:10;;;;;;;16.63;6.85;;;-2.80;99.90;;;;;;5058131;28;20032;-81
2022/03/05 06:55:35;;;;;;;16.50;6.78;;;-2.70;99.90;;;;;;5067079;28;20055;-82
2022/03/05 06:58:01;;;;;;;18.42;7.50;;;-2.60;99.90;;;;;;5061058;28;20063;-82
2022/03/05 07:00:26;;;;;;;15.98;6.47;;;-2.60;99.90;;;;;;5067534;28;20036;-82
2022/03/05 07:02:52;;;;;;;15.55;5.93;;;-2.60;99.90;;;;;;5071770;28;20121;-82
2022/03/05 07:05:17;;;;;;;17.70;7.10;;;-2.40;99.90;;;;;;5063176;28;20029;-82
2022/03/05 07:07:43;;;;;;;15.85;6.53;;;-2.40;99.90;;;;;;5046576;28;20072;-83
2022/03/05 07:10:09;;;;;;;16.48;6.50;;;-2.10;99.90;;;;;;5068278;28;20013;-82
2022/03/05 07:12:35;;;;;;;18.55;7.93;;;-2.00;99.90;;;;;;5058615;28;20107;-83
2022/03/05 07:15:01;;;;;;;20.05;6.97;;;-1.90;99.90;;;;;;5065215;28;20040;-83
2022/03/05 07:17:27;;;;;;;14.73;6.55;;;-1.80;99.70;;;;;;5084222;28;20119;-84
2022/03/05 07:19:56;;;;;;;15.40;6.28;;;-1.80;99.90;;;;;;5071169;28;20067;-82
2022/03/05 07:22:22;;;;;;;16.60;6.93;;;0.90;1.00;;;;;;5067778;28;20036;-82
2022/03/05 07:24:48;;;;;;;15.75;6.85;;;3.80;99.90;;;;;;5052928;28;20513;-82
2022/03/05 07:27:13;;;;;;;14.25;6.45;;;5.10;99.90;;;;;;5056270;28;20140;-82
2022/03/05 07:29:39;;;;;;;9.43;4.65;;;6.80;99.90;;;;;;5054143;28;20025;-82
2022/03/05 07:32:05;;;;;;;14.35;5.97;;;6.70;99.90;;;;;;5059928;28;20017;-82
2022/03/05 07:34:31;;;;;;;12.75;5.75;;;7.10;99.90;;;;;;5048763;28;20542;-82
2022/03/05 07:36:57;;;;;;;12.23;5.45;;;7.60;99.90;;;;;;5058711;28;20104;-82
2022/03/05 07:39:23;;;;;;;12.38;5.70;;;8.70;99.90;;;;;;5059785;28;20021;-83
2022/03/05 07:41:49;;;;;;;12.95;6.40;;;7.60;99.90;;;;;;5060139;28;20024;-83
2022/03/05 07:44:14;;;;;;;9.93;5.15;;;7.90;99.90;;;;;;5065182;28;20036;-83
2022/03/05 07:46:40;;;;;;;13.60;6.93;;;8.40;99.90;;;;;;5083171;28;20031;-83
2022/03/05 07:49:05;;;;;;;14.43;6.20;;;9.10;99.90;;;;;;5074175;28;20031;-83
2022/03/05 07:51:32;;;;;;;12.55;5.85;;;8.60;99.90;;;;;;5060388;28;20025;-83
2022/03/05 07:54:05;;;;;;;14.27;6.55;;;10.40;99.90;;;;;;5064421;28;20028;-84
2022/03/05 07:56:30;;;;;;;11.02;5.18;;;10.30;99.90;;;;;;5059009;28;20040;-85
2022/03/05 07:58:56;;;;;;;9.05;5.05;;;10.00;99.90;;;;;;5066308;28;20021;-83
2022/03/05 08:01:21;;;;;;;10.07;5.97;;;9.40;99.90;;;;;;5086335;28;20039;-84
2022/03/05 08:03:47;;;;;;;12.50;5.80;;;8.90;99.90;;;;;;5086083;28;20029;-84
2022/03/05 08:06:13;;;;;;;10.20;5.72;;;10.30;99.90;;;;;;5070651;28;20082;-85
2022/03/05 08:08:38;;;;;;;12.32;5.78;;;10.40;99.90;;;;;;5062724;28;20154;-84
2022/03/05 08:11:04;;;;;;;10.82;4.90;;;11.00;99.90;;;;;;5080591;28;20076;-85
2022/03/05 08:13:29;;;;;;;11.00;6.05;;;11.10;99.90;;;;;;5078836;28;20021;-86
2022/03/05 08:15:56;;;;;;;13.18;6.45;;;11.10;99.90;;;;;;5085311;28;20077;-86
2022/03/05 08:18:21;;;;;;;11.20;5.90;;;10.40;99.90;;;;;;5074545;28;20036;-86
2022/03/05 08:20:47;;;;;;;10.27;5.30;;;10.20;99.90;;;;;;5070674;28;20036;-86
2022/03/05 08:23:13;;;;;;;11.32;5.15;;;11.70;99.90;;;;;;5064439;28;20032;-86
2022/03/05 08:25:38;;;;;;;9.48;5.60;;;9.80;99.90;;;;;;5077313;28;20056;-86
2022/03/05 08:28:04;;;;;;;12.00;5.85;;;10.20;99.90;;;;;;5059667;28;20021;-86
2022/03/05 08:30:30;;;;;;;8.98;5.10;;;9.70;99.90;;;;;;5067793;28;20053;-86
2022/03/05 08:32:55;;;;;;;14.45;7.65;;;11.00;99.90;;;;;;5089481;28;20078;-86
2022/03/05 08:35:21;;;;;;;11.48;5.82;;;10.70;99.90;;;;;;5082859;28;20025;-86
2022/03/05 08:37:47;;;;;;;14.07;6.10;;;12.70;99.90;;;;;;5062749;28;20031;-87
2022/03/05 08:40:14;;;;;;;10.40;6.13;;;11.50;99.90;;;;;;5058088;28;20017;-87
2022/03/05 08:42:41;;;;;;;11.02;5.93;;;12.50;99.90;;;;;;5058919;28;20615;-87
2022/03/05 08:45:08;;;;;;;11.15;6.05;;;12.20;99.90;;;;;;5062668;28;20033;-87
2022/03/05 08:47:34;;;;;;;11.38;6.13;;;13.50;99.90;;;;;;5061188;28;20025;-86
2022/03/05 08:50:00;;;;;;;12.38;6.82;;;13.30;99.90;;;;;;5066337;28;20499;-84
2022/03/05 08:52:25;;;;;;;14.80;6.20;;;12.20;99.90;;;;;;5051017;28;20048;-86
2022/03/05 08:54:51;;;;;;;10.05;5.82;;;13.10;99.90;;;;;;5066258;28;20047;-85
2022/03/05 08:57:17;;;;;;;11.95;6.53;;;12.00;99.90;;;;;;5057207;28;20029;-86
2022/03/05 08:59:42;;;;;;;13.73;6.32;;;12.20;99.90;;;;;;5053467;28;20026;-85
2022/03/05 09:02:08;;;;;;;13.27;7.32;;;12.70;99.90;;;;;;5055598;28;20025;-85
2022/03/05 09:04:34;;;;;;;13.70;6.90;;;14.30;99.90;;;;;;5049153;28;20060;-85
2022/03/05 09:07:01;;;;;;;13.43;7.93;;;11.70;99.90;;;;;;5072109;28;20021;-85
2022/03/05 09:09:27;;;;;;;12.70;7.05;;;11.20;99.90;;;;;;5069332;28;20033;-85
2022/03/05 09:11:52;;;;;;;16.08;8.13;;;11.90;99.90;;;;;;5073757;28;20096;-85
2022/03/05 09:14:18;;;;;;;13.52;6.18;;;14.10;99.90;;;;;;5075276;28;20035;-85
2022/03/05 09:16:44;;;;;;;14.63;7.88;;;14.30;99.90;;;;;;5055756;28;20026;-87
2022/03/05 09:19:09;;;;;;;14.63;7.20;;;12.80;99.90;;;;;;5065595;28;20025;-84
2022/03/05 09:21:36;;;;;;;16.75;7.68;;;14.90;99.90;;;;;;5073335;28;20029;-85
2022/03/05 09:24:03;;;;;;;14.00;7.15;;;14.50;99.90;;;;;;5087565;28;20063;-85
2022/03/05 09:26:30;;;;;;;17.70;9.00;;;13.60;99.90;;;;;;5072600;28;20086;-85
2022/03/05 09:28:58;;;;;;;14.75;8.50;;;13.40;99.90;;;;;;5076379;28;20017;-85
2022/03/05 09:31:24;;;;;;;15.85;8.75;;;14.80;99.90;;;;;;5080765;28;20024;-84
2022/03/05 09:33:51;;;;;;;17.55;8.40;;;15.00;99.90;;;;;;5082078;28;20064;-85
2022/03/05 09:36:16;;;;;;;17.92;8.60;;;15.20;99.90;;;;;;5081823;28;20406;-83
2022/03/05 09:38:42;;;;;;;17.73;8.90;;;13.70;99.90;;;;;;5084889;28;20069;-84
2022/03/05 09:41:08;;;;;;;16.75;8.40;;;13.40;99.90;;;;;;5079429;28;20017;-86
2022/03/05 09:43:35;;;;;;;16.52;8.88;;;12.40;99.90;;;;;;5077805;28;20037;-84
2022/03/05 09:46:02;;;;;;;16.77;8.05;;;14.90;99.90;;;;;;5084217;28;20017;-85
2022/03/05 09:48:29;;;;;;;19.25;9.18;;;14.60;99.90;;;;;;5081094;28;20014;-84
2022/03/05 09:50:55;;;;;;;16.13;7.80;;;15.70;99.90;;;;;;5071605;28;20017;-84
2022/03/05 09:53:30;;;;;;;12.35;7.07;;;17.00;99.90;;;;;;5074234;28;20036;-84
2022/03/05 09:55:56;;;;;;;16.88;8.00;;;15.50;99.90;;;;;;5064999;28;20041;-84
2022/03/05 09:58:22;;;;;;;15.95;8.68;;;16.40;99.90;;;;;;5071931;28;20029;-84
2022/03/05 10:00:48;;;;;;;18.67;8.48;;;16.30;99.90;;;;;;5072506;28;20024;-84
2022/03/05 10:03:14;;;;;;;16.45;7.97;;;16.10;99.90;;;;;;5062717;28;20040;-84
2022/03/05 10:05:41;;;;;;;17.98;8.95;;;16.10;99.90;;;;;;5065671;28;20025;-84
2022/03/05 10:08:20;;;;;;;15.18;7.53;;;15.30;99.90;;;;;;5068719;28;20057;-84
2022/03/05 10:10:48;;;;;;;20.90;8.68;;;13.10;99.90;;;;;;5072202;28;20021;-83
2022/03/05 10:13:31;;;;;;;14.23;7.05;;;14.20;99.90;;;;;;5088425;28;20043;-84
2022/03/05 10:16:00;;;;;;;19.35;9.05;;;15.70;99.90;;;;;;5076246;28;20024;-84
2022/03/05 10:18:36;;;;;;;20.35;9.55;;;14.80;99.90;;;;;;5076079;28;20017;-85
2022/03/05 10:21:07;;;;;;;18.65;9.63;;;15.20;99.90;;;;;;5073108;28;20024;-84
2022/03/05 10:23:38;;;;;;;18.92;9.93;;;13.20;99.90;;;;;;5081350;28;20384;-84
2022/03/05 10:26:08;;;;;;;20.05;10.20;;;13.90;99.90;;;;;;5085603;28;20035;-84
2022/03/05 10:28:34;;;;;;;17.98;9.40;;;14.70;99.90;;;;;;5073402;28;20022;-85
2022/03/05 10:31:09;;;;;;;17.67;8.68;;;15.50;99.90;;;;;;5066692;28;20025;-81
2022/03/05 10:33:43;;;;;;;15.65;8.90;;;13.70;99.90;;;;;;5076338;28;20017;-84
2022/03/05 10:36:24;;;;;;;18.40;8.93;;;12.40;99.90;;;;;;5074016;28;20032;-85
2022/03/05 10:38:49;;;;;;;19.65;9.15;;;11.00;99.90;;;;;;5073203;28;20109;-85
2022/03/05 10:41:20;;;;;;;16.58;8.15;;;9.60;99.90;;;;;;5085014;28;20032;-85
2022/03/05 10:44:03;;;;;;;13.70;6.95;;;9.10;99.90;;;;;;5068924;28;20060;-84
2022/03/05 10:46:39;;;;;;;22.13;9.95;;;8.00;99.90;;;;;;5073526;28;20013;-85
2022/03/05 10:49:31;;;;;;;17.73;8.85;;;7.80;99.90;;;;;;5071621;28;20014;-84
2022/03/05 10:52:02;;;;;;;18.10;8.65;;;7.70;99.90;;;;;;5072896;28;20029;-84
2022/03/05 10:54:42;;;;;;;19.15;9.02;;;7.50;99.90;;;;;;5069475;28;20013;-84
2022/03/05 10:57:15;;;;;;;19.40;9.73;;;7.70;99.90;;;;;;5070303;28;20017;-84
2022/03/05 10:59:43;;;;;;;19.10;9.65;;;7.60;99.90;;;;;;5079398;28;20021;-84
2022/03/05 11:02:10;;;;;;;20.17;8.60;;;7.60;99.90;;;;;;5073249;28;20017;-84
2022/03/05 11:04:37;;;;;;;18.95;9.20;;;7.30;99.90;;;;;;5073473;28;20029;-85
2022/03/05 11:07:04;;;;;;;22.13;8.48;;;7.10;99.90;;;;;;5074023;28;20041;-84
2022/03/05 11:09:31;;;;;;;17.70;7.50;;;6.90;99.90;;;;;;5071187;28;20032;-84
2022/03/05 11:11:59;;;;;;;15.43;7.03;;;7.20;99.90;;;;;;5059249;28;20040;-84
2022/03/05 11:14:25;;;;;;;19.83;9.27;;;6.70;99.90;;;;;;5068907;28;20032;-85
2022/03/05 11:16:51;;;;;;;18.88;8.63;;;6.70;99.90;;;;;;5085343;28;20021;-85
2022/03/05 11:19:17;;;;;;;19.38;8.73;;;7.00;99.90;;;;;;5083951;28;20021;-84
2022/03/05 11:21:43;;;;;;;22.20;9.98;;;7.10;99.90;;;;;;5088066;28;20089;-84
2022/03/05 11:24:14;;;;;;;21.25;8.95;;;6.90;99.90;;;;;;5087203;28;20051;-85
2022/03/05 11:26:40;;;;;;;17.77;8.95;;;6.90;99.90;;;;;;5064363;28;20072;-85
2022/03/05 11:29:06;;;;;;;14.68;7.38;;;6.80;99.90;;;;;;5095822;28;20028;-85
2022/03/05 11:31:34;;;;;;;19.95;7.63;;;6.70;99.90;;;;;;5073796;28;20041;-84
2022/03/05 11:34:17;;;;;;;19.30;9.15;;;6.90;99.90;;;;;;5063052;28;20048;-84
2022/03/05 11:36:45;;;;;;;19.45;9.50;;;6.80;99.90;;;;;;5068326;28;20012;-85
2022/03/05 11:39:12;;;;;;;17.33;8.00;;;7.30;99.90;;;;;;5077782;28;20025;-85
2022/03/05 11:42:01;;;;;;;17.05;7.28;;;6.90;99.90;;;;;;5071610;28;20084;-86
2022/03/05 11:44:29;;;;;;;18.63;8.48;;;6.70;99.90;;;;;;5060193;28;20060;-85
2022/03/05 11:47:20;;;;;;;19.70;9.20;;;6.60;99.90;;;;;;5065176;28;20025;-85
2022/03/05 11:50:04;;;;;;;19.35;8.60;;;7.10;99.90;;;;;;5067938;28;20070;-85
2022/03/05 11:52:38;;;;;;;17.75;8.15;;;7.50;99.90;;;;;;5058510;28;20020;-85
2022/03/05 11:55:24;;;;;;;19.52;7.50;;;7.10;99.90;;;;;;5078279;28;20054;-85
2022/03/05 11:57:52;;;;;;;19.05;9.38;;;7.00;99.90;;;;;;5081699;28;20093;-85
2022/03/05 12:00:19;;;;;;;21.40;9.32;;;7.30;99.90;;;;;;5071388;28;20067;-84
2022/03/05 12:02:46;;;;;;;20.00;9.27;;;7.10;99.90;;;;;;5076667;28;20029;-84
2022/03/05 12:05:44;;;;;;;24.42;10.93;;;7.30;99.90;;;;;;5089580;28;20032;-87
2022/03/05 12:08:22;;;;;;;18.27;8.00;;;7.20;99.90;;;;;;5054784;28;20033;-86
2022/03/05 12:11:10;;;;;;;16.13;8.30;;;6.90;99.90;;;;;;5075011;28;20025;-86
2022/03/05 12:13:44;;;;;;;18.42;8.52;;;6.80;99.90;;;;;;5078773;28;20041;-86
2022/03/05 12:16:17;;;;;;;20.02;9.25;;;6.80;99.90;;;;;;5088087;28;20036;-87
2022/03/05 12:18:44;;;;;;;19.98;9.13;;;7.20;99.90;;;;;;5090416;28;20020;-88
2022/03/05 12:21:10;;;;;;;18.35;8.50;;;7.00;99.90;;;;;;5078642;28;20005;-87
2022/03/05 12:23:36;;;;;;;23.92;10.52;;;6.90;99.90;;;;;;5081245;28;20033;-87
2022/03/05 12:26:05;;;;;;;21.17;9.00;;;6.60;99.90;;;;;;5070859;28;20032;-88
2022/03/05 12:28:41;;;;;;;24.08;10.20;;;6.90;99.90;;;;;;5070893;28;20032;-87
2022/03/05 12:31:20;;;;;;;19.42;9.15;;;7.10;99.90;;;;;;5085351;28;20521;-87
2022/03/05 12:33:51;;;;;;;18.47;8.47;;;7.10;99.90;;;;;;5067820;28;20048;-87
2022/03/05 12:36:18;;;;;;;17.80;8.88;;;7.30;99.90;;;;;;5067722;28;20514;-87
2022/03/05 12:38:52;;;;;;;19.05;9.10;;;7.10;99.90;;;;;;5072428;28;20025;-87
2022/03/05 12:41:18;;;;;;;18.85;9.27;;;7.10;99.90;;;;;;5059820;28;20075;-87
2022/03/05 12:43:44;;;;;;;19.88;9.15;;;7.50;99.90;;;;;;5063954;28;20059;-87